sensor_id;sensor_type;location;lat;lon;timestamp;temperature;humidity
62154;DHT22;48140;45.486;9.226;2023-02-16T00:00:53;10.30;81.50
62154;DHT22;48140;45.486;9.226;2023-02-16T00:03:21;10.20;81.60
62154;DHT22;48140;45.486;9.226;2023-02-16T00:05:47;10.20;81.80
62154;DHT22;48140;45.486;9.226;2023-02-16T00:08:13;10.10;82.10
62154;DHT22;48140;45.486;9.226;2023-02-16T00:10:39;10.10;82.60
62154;DHT22;48140;45.486;9.226;2023-02-16T00:13:26;10.00;83.00
62154;DHT22;48140;45.486;9.226;2023-02-16T00:16:23;10.00;82.80
62154;DHT22;48140;45.486;9.226;2023-02-16T00:18:50;9.90;82.90
62154;DHT22;48140;45.486;9.226;2023-02-16T00:21:15;9.90;83.20
62154;DHT22;48140;45.486;9.226;2023-02-16T00:23:42;9.90;83.50
62154;DHT22;48140;45.486;9.226;2023-02-16T00:26:22;9.90;83.30
62154;DHT22;48140;45.486;9.226;2023-02-16T00:28:50;9.90;83.40
62154;DHT22;48140;45.486;9.226;2023-02-16T00:31:18;9.90;83.20
62154;DHT22;48140;45.486;9.226;2023-02-16T00:33:45;9.90;83.10
62154;DHT22;48140;45.486;9.226;2023-02-16T00:36:10;10.00;83.30
62154;DHT22;48140;45.486;9.226;2023-02-16T00:38:36;9.90;83.60
62154;DHT22;48140;45.486;9.226;2023-02-16T00:41:02;10.00;83.50
62154;DHT22;48140;45.486;9.226;2023-02-16T00:43:28;10.00;83.40
62154;DHT22;48140;45.486;9.226;2023-02-16T00:45:55;9.90;83.50
62154;DHT22;48140;45.486;9.226;2023-02-16T00:48:22;9.90;83.30
62154;DHT22;48140;45.486;9.226;2023-02-16T00:50:48;9.90;83.50
62154;DHT22;48140;45.486;9.226;2023-02-16T00:53:14;9.90;83.70
62154;DHT22;48140;45.486;9.226;2023-02-16T00:55:40;9.90;83.80
62154;DHT22;48140;45.486;9.226;2023-02-16T01:00:47;9.80;84.00
62154;DHT22;48140;45.486;9.226;2023-02-16T01:03:18;9.80;84.10
62154;DHT22;48140;45.486;9.226;2023-02-16T01:05:45;9.80;84.40
62154;DHT22;48140;45.486;9.226;2023-02-16T01:08:13;9.70;84.10
62154;DHT22;48140;45.486;9.226;2023-02-16T01:11:00;9.70;84.30
62154;DHT22;48140;45.486;9.226;2023-02-16T01:13:45;9.60;84.50
62154;DHT22;48140;45.486;9.226;2023-02-16T01:18:41;9.60;84.50
62154;DHT22;48140;45.486;9.226;2023-02-16T01:21:07;9.60;84.60
62154;DHT22;48140;45.486;9.226;2023-02-16T01:23:32;9.50;85.00
62154;DHT22;48140;45.486;9.226;2023-02-16T01:25:58;9.50;84.90
62154;DHT22;48140;45.486;9.226;2023-02-16T01:28:25;9.60;84.80
62154;DHT22;48140;45.486;9.226;2023-02-16T01:30:52;9.50;84.90
62154;DHT22;48140;45.486;9.226;2023-02-16T01:33:18;9.40;84.80
62154;DHT22;48140;45.486;9.226;2023-02-16T01:35:44;9.50;84.70
62154;DHT22;48140;45.486;9.226;2023-02-16T01:38:30;9.40;84.90
62154;DHT22;48140;45.486;9.226;2023-02-16T01:41:08;9.30;84.90
62154;DHT22;48140;45.486;9.226;2023-02-16T01:43:56;9.40;85.40
62154;DHT22;48140;45.486;9.226;2023-02-16T01:47:00;9.40;85.50
62154;DHT22;48140;45.486;9.226;2023-02-16T01:49:27;9.40;85.40
62154;DHT22;48140;45.486;9.226;2023-02-16T01:52:17;9.40;85.60
62154;DHT22;48140;45.486;9.226;2023-02-16T01:54:55;9.30;85.70
62154;DHT22;48140;45.486;9.226;2023-02-16T01:57:37;9.30;85.50
62154;DHT22;48140;45.486;9.226;2023-02-16T02:05:51;9.30;85.70
62154;DHT22;48140;45.486;9.226;2023-02-16T02:18:31;9.20;86.10
62154;DHT22;48140;45.486;9.226;2023-02-16T02:33:05;9.10;86.40
62154;DHT22;48140;45.486;9.226;2023-02-16T02:45:14;9.00;87.10
62154;DHT22;48140;45.486;9.226;2023-02-16T02:47:46;9.00;87.00
62154;DHT22;48140;45.486;9.226;2023-02-16T02:50:47;9.00;87.00
62154;DHT22;48140;45.486;9.226;2023-02-16T02:53:50;9.00;87.20
62154;DHT22;48140;45.486;9.226;2023-02-16T03:04:11;8.80;87.40
62154;DHT22;48140;45.486;9.226;2023-02-16T03:17:48;8.60;88.30
62154;DHT22;48140;45.486;9.226;2023-02-16T03:34:02;8.30;85.50
62154;DHT22;48140;45.486;9.226;2023-02-16T03:37:06;8.20;86.30
62154;DHT22;48140;45.486;9.226;2023-02-16T03:40:23;8.10;86.40
62154;DHT22;48140;45.486;9.226;2023-02-16T03:43:14;8.00;86.40
62154;DHT22;48140;45.486;9.226;2023-02-16T03:46:27;8.00;87.00
62154;DHT22;48140;45.486;9.226;2023-02-16T03:50:07;7.90;87.50
62154;DHT22;48140;45.486;9.226;2023-02-16T03:57:02;8.00;87.40
62154;DHT22;48140;45.486;9.226;2023-02-16T04:03:01;7.90;87.40
62154;DHT22;48140;45.486;9.226;2023-02-16T04:36:55;7.70;88.40
62154;DHT22;48140;45.486;9.226;2023-02-16T04:40:09;7.80;88.20
62154;DHT22;48140;45.486;9.226;2023-02-16T04:46:21;7.80;87.90
62154;DHT22;48140;45.486;9.226;2023-02-16T04:56:24;7.80;87.80
62154;DHT22;48140;45.486;9.226;2023-02-16T05:06:15;7.80;88.10
62154;DHT22;48140;45.486;9.226;2023-02-16T05:09:28;7.80;87.80
62154;DHT22;48140;45.486;9.226;2023-02-16T05:12:52;7.80;87.90
62154;DHT22;48140;45.486;9.226;2023-02-16T05:15:57;7.80;88.00
62154;DHT22;48140;45.486;9.226;2023-02-16T05:18:54;7.80;87.90
62154;DHT22;48140;45.486;9.226;2023-02-16T05:28:29;7.80;87.90
62154;DHT22;48140;45.486;9.226;2023-02-16T05:31:52;7.90;87.90
62154;DHT22;48140;45.486;9.226;2023-02-16T05:48:32;7.80;90.40
62154;DHT22;48140;45.486;9.226;2023-02-16T05:58:25;7.80;90.50
62154;DHT22;48140;45.486;9.226;2023-02-16T06:04:40;7.70;90.30
62154;DHT22;48140;45.486;9.226;2023-02-16T06:07:21;7.70;90.50
62154;DHT22;48140;45.486;9.226;2023-02-16T06:10:23;7.70;90.50
62154;DHT22;48140;45.486;9.226;2023-02-16T06:13:25;7.60;90.70
62154;DHT22;48140;45.486;9.226;2023-02-16T06:16:48;7.60;91.40
62154;DHT22;48140;45.486;9.226;2023-02-16T06:26:36;7.60;91.70
62154;DHT22;48140;45.486;9.226;2023-02-16T06:29:32;7.70;91.70
62154;DHT22;48140;45.486;9.226;2023-02-16T06:32:30;7.70;92.00
62154;DHT22;48140;45.486;9.226;2023-02-16T06:35:16;7.70;91.90
62154;DHT22;48140;45.486;9.226;2023-02-16T06:37:48;7.70;91.70
62154;DHT22;48140;45.486;9.226;2023-02-16T06:40:26;7.80;91.50
62154;DHT22;48140;45.486;9.226;2023-02-16T06:43:02;7.80;91.80
62154;DHT22;48140;45.486;9.226;2023-02-16T06:45:37;7.80;90.90
62154;DHT22;48140;45.486;9.226;2023-02-16T06:48:12;7.80;90.90
62154;DHT22;48140;45.486;9.226;2023-02-16T06:50:43;7.80;91.10
62154;DHT22;48140;45.486;9.226;2023-02-16T06:53:20;7.90;91.10
62154;DHT22;48140;45.486;9.226;2023-02-16T06:55:50;7.90;91.20
62154;DHT22;48140;45.486;9.226;2023-02-16T06:58:21;8.00;91.10
62154;DHT22;48140;45.486;9.226;2023-02-16T07:00:58;8.00;90.80
62154;DHT22;48140;45.486;9.226;2023-02-16T07:03:37;8.00;90.50
62154;DHT22;48140;45.486;9.226;2023-02-16T07:06:04;8.00;90.50
62154;DHT22;48140;45.486;9.226;2023-02-16T07:08:33;8.10;90.50
62154;DHT22;48140;45.486;9.226;2023-02-16T07:11:02;8.10;90.40
62154;DHT22;48140;45.486;9.226;2023-02-16T07:13:30;8.10;90.40
62154;DHT22;48140;45.486;9.226;2023-02-16T07:16:02;8.20;90.30
62154;DHT22;48140;45.486;9.226;2023-02-16T07:18:28;8.20;90.30
62154;DHT22;48140;45.486;9.226;2023-02-16T07:21:04;8.30;90.40
62154;DHT22;48140;45.486;9.226;2023-02-16T07:23:37;8.40;90.30
62154;DHT22;48140;45.486;9.226;2023-02-16T07:26:06;8.40;90.20
62154;DHT22;48140;45.486;9.226;2023-02-16T07:28:41;8.50;90.20
62154;DHT22;48140;45.486;9.226;2023-02-16T07:31:12;8.50;90.10
62154;DHT22;48140;45.486;9.226;2023-02-16T07:33:39;8.60;90.20
62154;DHT22;48140;45.486;9.226;2023-02-16T07:36:05;8.40;90.10
62154;DHT22;48140;45.486;9.226;2023-02-16T07:38:45;8.70;90.10
62154;DHT22;48140;45.486;9.226;2023-02-16T07:41:19;8.90;92.00
62154;DHT22;48140;45.486;9.226;2023-02-16T07:43:48;9.00;91.70
62154;DHT22;48140;45.486;9.226;2023-02-16T07:46:14;9.00;91.70
62154;DHT22;48140;45.486;9.226;2023-02-16T07:48:49;9.10;90.70
62154;DHT22;48140;45.486;9.226;2023-02-16T07:51:29;9.20;90.40
62154;DHT22;48140;45.486;9.226;2023-02-16T07:54:01;9.30;90.90
62154;DHT22;48140;45.486;9.226;2023-02-16T07:56:30;9.40;90.80
62154;DHT22;48140;45.486;9.226;2023-02-16T07:59:00;9.40;90.70
62154;DHT22;48140;45.486;9.226;2023-02-16T08:01:27;9.50;90.50
62154;DHT22;48140;45.486;9.226;2023-02-16T08:03:54;9.50;90.60
62154;DHT22;48140;45.486;9.226;2023-02-16T08:06:23;9.50;90.60
62154;DHT22;48140;45.486;9.226;2023-02-16T08:08:52;9.60;90.60
62154;DHT22;48140;45.486;9.226;2023-02-16T08:11:24;9.60;90.50
62154;DHT22;48140;45.486;9.226;2023-02-16T08:13:53;9.70;91.30
62154;DHT22;48140;45.486;9.226;2023-02-16T08:16:27;9.80;91.60
62154;DHT22;48140;45.486;9.226;2023-02-16T08:18:58;9.90;91.10
62154;DHT22;48140;45.486;9.226;2023-02-16T08:21:30;10.00;91.00
62154;DHT22;48140;45.486;9.226;2023-02-16T08:24:02;9.90;90.50
62154;DHT22;48140;45.486;9.226;2023-02-16T08:26:36;10.00;91.10
62154;DHT22;48140;45.486;9.226;2023-02-16T08:29:04;10.10;91.20
62154;DHT22;48140;45.486;9.226;2023-02-16T08:31:34;10.20;92.00
62154;DHT22;48140;45.486;9.226;2023-02-16T08:34:03;10.40;91.90
62154;DHT22;48140;45.486;9.226;2023-02-16T08:36:46;10.50;92.30
62154;DHT22;48140;45.486;9.226;2023-02-16T08:39:19;10.70;92.90
62154;DHT22;48140;45.486;9.226;2023-02-16T08:41:48;10.80;93.40
62154;DHT22;48140;45.486;9.226;2023-02-16T08:44:24;10.80;93.70
62154;DHT22;48140;45.486;9.226;2023-02-16T08:47:04;11.30;92.80
62154;DHT22;48140;45.486;9.226;2023-02-16T08:49:35;11.60;92.30
62154;DHT22;48140;45.486;9.226;2023-02-16T08:52:04;11.80;91.90
62154;DHT22;48140;45.486;9.226;2023-02-16T08:54:30;12.10;91.30
62154;DHT22;48140;45.486;9.226;2023-02-16T08:57:00;12.40;90.40
62154;DHT22;48140;45.486;9.226;2023-02-16T08:59:31;12.60;90.30
62154;DHT22;48140;45.486;9.226;2023-02-16T09:01:58;12.90;88.90
62154;DHT22;48140;45.486;9.226;2023-02-16T09:04:27;12.80;88.90
62154;DHT22;48140;45.486;9.226;2023-02-16T09:07:13;12.90;89.10
62154;DHT22;48140;45.486;9.226;2023-02-16T09:09:47;12.70;89.80
62154;DHT22;48140;45.486;9.226;2023-02-16T09:12:28;12.80;89.80
62154;DHT22;48140;45.486;9.226;2023-02-16T09:15:05;13.00;89.20
62154;DHT22;48140;45.486;9.226;2023-02-16T09:17:44;13.00;88.90
62154;DHT22;48140;45.486;9.226;2023-02-16T09:20:15;13.10;87.90
62154;DHT22;48140;45.486;9.226;2023-02-16T09:22:45;13.30;87.20
62154;DHT22;48140;45.486;9.226;2023-02-16T09:25:16;13.50;86.40
62154;DHT22;48140;45.486;9.226;2023-02-16T09:27:42;13.80;85.20
62154;DHT22;48140;45.486;9.226;2023-02-16T09:30:09;14.00;83.70
62154;DHT22;48140;45.486;9.226;2023-02-16T09:32:41;14.10;83.50
62154;DHT22;48140;45.486;9.226;2023-02-16T09:35:08;14.10;83.60
62154;DHT22;48140;45.486;9.226;2023-02-16T09:37:33;14.10;83.00
62154;DHT22;48140;45.486;9.226;2023-02-16T09:40:02;14.30;82.70
62154;DHT22;48140;45.486;9.226;2023-02-16T09:45:19;15.00;79.70
62154;DHT22;48140;45.486;9.226;2023-02-16T09:47:49;15.20;78.10
62154;DHT22;48140;45.486;9.226;2023-02-16T09:55:31;16.00;74.90
62154;DHT22;48140;45.486;9.226;2023-02-16T09:58:15;15.90;74.10
62154;DHT22;48140;45.486;9.226;2023-02-16T10:00:55;15.90;74.30
62154;DHT22;48140;45.486;9.226;2023-02-16T10:03:37;15.90;74.40
62154;DHT22;48140;45.486;9.226;2023-02-16T10:06:23;16.30;72.80
62154;DHT22;48140;45.486;9.226;2023-02-16T10:08:58;16.20;72.50
62154;DHT22;48140;45.486;9.226;2023-02-16T10:11:41;16.20;73.10
62154;DHT22;48140;45.486;9.226;2023-02-16T10:17:13;15.80;74.40
62154;DHT22;48140;45.486;9.226;2023-02-16T10:23:10;15.50;76.00
62154;DHT22;48140;45.486;9.226;2023-02-16T10:25:47;15.80;75.00
62154;DHT22;48140;45.486;9.226;2023-02-16T10:28:31;15.80;74.50
62154;DHT22;48140;45.486;9.226;2023-02-16T10:31:12;16.40;71.80
62154;DHT22;48140;45.486;9.226;2023-02-16T10:33:43;17.00;68.30
62154;DHT22;48140;45.486;9.226;2023-02-16T12:20:44;20.70;42.20
62154;DHT22;48140;45.486;9.226;2023-02-16T12:47:12;21.60;38.60
62154;DHT22;48140;45.486;9.226;2023-02-16T12:49:54;21.40;38.20
62154;DHT22;48140;45.486;9.226;2023-02-16T14:21:00;21.50;34.80
62154;DHT22;48140;45.486;9.226;2023-02-16T14:29:00;23.00;34.10
62154;DHT22;48140;45.486;9.226;2023-02-16T14:31:27;23.00;32.70
62154;DHT22;48140;45.486;9.226;2023-02-16T14:58:21;24.20;30.50
62154;DHT22;48140;45.486;9.226;2023-02-16T15:16:22;24.80;29.90
62154;DHT22;48140;45.486;9.226;2023-02-16T15:18:50;24.20;29.90
62154;DHT22;48140;45.486;9.226;2023-02-16T15:21:20;23.60;31.00
62154;DHT22;48140;45.486;9.226;2023-02-16T15:23:59;23.70;31.20
62154;DHT22;48140;45.486;9.226;2023-02-16T15:26:30;23.10;32.20
62154;DHT22;48140;45.486;9.226;2023-02-16T15:29:00;22.80;33.10
62154;DHT22;48140;45.486;9.226;2023-02-16T15:31:37;23.40;32.10
62154;DHT22;48140;45.486;9.226;2023-02-16T15:34:32;22.70;33.40
62154;DHT22;48140;45.486;9.226;2023-02-16T15:36:59;22.80;33.20
62154;DHT22;48140;45.486;9.226;2023-02-16T15:39:32;22.80;32.80
62154;DHT22;48140;45.486;9.226;2023-02-16T15:42:23;22.90;32.90
62154;DHT22;48140;45.486;9.226;2023-02-16T15:47:30;22.70;32.90
62154;DHT22;48140;45.486;9.226;2023-02-16T15:49:56;22.70;33.00
62154;DHT22;48140;45.486;9.226;2023-02-16T15:52:32;22.20;33.70
62154;DHT22;48140;45.486;9.226;2023-02-16T15:55:01;21.90;34.60
62154;DHT22;48140;45.486;9.226;2023-02-16T15:57:35;22.20;34.20
62154;DHT22;48140;45.486;9.226;2023-02-16T16:00:22;21.80;34.60
62154;DHT22;48140;45.486;9.226;2023-02-16T16:02:54;21.40;35.30
62154;DHT22;48140;45.486;9.226;2023-02-16T16:05:31;20.90;36.60
62154;DHT22;48140;45.486;9.226;2023-02-16T16:08:00;20.90;36.90
62154;DHT22;48140;45.486;9.226;2023-02-16T16:10:34;20.90;37.30
62154;DHT22;48140;45.486;9.226;2023-02-16T16:13:12;20.30;38.60
62154;DHT22;48140;45.486;9.226;2023-02-16T16:15:43;20.00;39.80
62154;DHT22;48140;45.486;9.226;2023-02-16T16:18:39;19.70;40.90
62154;DHT22;48140;45.486;9.226;2023-02-16T16:21:23;19.30;41.90
62154;DHT22;48140;45.486;9.226;2023-02-16T16:23:54;18.90;43.40
62154;DHT22;48140;45.486;9.226;2023-02-16T16:26:21;18.40;44.90
62154;DHT22;48140;45.486;9.226;2023-02-16T16:28:48;18.10;46.80
62154;DHT22;48140;45.486;9.226;2023-02-16T16:34:05;17.10;52.00
62154;DHT22;48140;45.486;9.226;2023-02-16T16:36:46;16.50;56.80
62154;DHT22;48140;45.486;9.226;2023-02-16T16:41:46;15.80;61.50
62154;DHT22;48140;45.486;9.226;2023-02-16T16:44:41;15.50;63.40
62154;DHT22;48140;45.486;9.226;2023-02-16T16:47:24;15.30;65.40
62154;DHT22;48140;45.486;9.226;2023-02-16T16:49:52;14.90;68.10
62154;DHT22;48140;45.486;9.226;2023-02-16T16:52:29;14.70;69.50
62154;DHT22;48140;45.486;9.226;2023-02-16T16:54:55;14.70;69.80
62154;DHT22;48140;45.486;9.226;2023-02-16T16:57:21;14.70;70.00
62154;DHT22;48140;45.486;9.226;2023-02-16T16:59:48;14.40;71.10
62154;DHT22;48140;45.486;9.226;2023-02-16T17:02:15;14.30;71.80
62154;DHT22;48140;45.486;9.226;2023-02-16T17:04:40;14.30;71.90
62154;DHT22;48140;45.486;9.226;2023-02-16T17:07:06;14.20;72.50
62154;DHT22;48140;45.486;9.226;2023-02-16T17:09:34;14.20;72.60
62154;DHT22;48140;45.486;9.226;2023-02-16T17:12:00;14.10;72.90
62154;DHT22;48140;45.486;9.226;2023-02-16T17:14:25;13.90;73.60
62154;DHT22;48140;45.486;9.226;2023-02-16T17:16:52;13.80;73.80
62154;DHT22;48140;45.486;9.226;2023-02-16T17:19:20;13.80;74.00
62154;DHT22;48140;45.486;9.226;2023-02-16T17:21:47;13.70;74.70
62154;DHT22;48140;45.486;9.226;2023-02-16T17:24:13;13.70;74.70
62154;DHT22;48140;45.486;9.226;2023-02-16T17:26:39;13.60;75.00
62154;DHT22;48140;45.486;9.226;2023-02-16T17:29:06;13.50;75.20
62154;DHT22;48140;45.486;9.226;2023-02-16T17:31:32;13.40;75.60
62154;DHT22;48140;45.486;9.226;2023-02-16T17:33:58;13.40;75.70
62154;DHT22;48140;45.486;9.226;2023-02-16T17:36:25;13.30;76.10
62154;DHT22;48140;45.486;9.226;2023-02-16T17:38:51;13.30;76.10
62154;DHT22;48140;45.486;9.226;2023-02-16T17:41:26;13.20;76.40
62154;DHT22;48140;45.486;9.226;2023-02-16T17:43:53;13.30;76.30
62154;DHT22;48140;45.486;9.226;2023-02-16T17:46:20;13.20;76.60
62154;DHT22;48140;45.486;9.226;2023-02-16T17:48:52;13.20;76.90
62154;DHT22;48140;45.486;9.226;2023-02-16T17:51:22;13.10;76.60
62154;DHT22;48140;45.486;9.226;2023-02-16T17:53:49;13.00;77.00
62154;DHT22;48140;45.486;9.226;2023-02-16T17:56:17;13.00;77.40
62154;DHT22;48140;45.486;9.226;2023-02-16T17:58:43;12.90;77.20
62154;DHT22;48140;45.486;9.226;2023-02-16T18:01:13;12.80;77.50
62154;DHT22;48140;45.486;9.226;2023-02-16T18:03:39;12.70;78.00
62154;DHT22;48140;45.486;9.226;2023-02-16T18:06:05;12.60;78.70
62154;DHT22;48140;45.486;9.226;2023-02-16T18:08:31;12.60;79.30
62154;DHT22;48140;45.486;9.226;2023-02-16T18:10:57;12.50;79.50
62154;DHT22;48140;45.486;9.226;2023-02-16T18:13:27;12.40;79.70
62154;DHT22;48140;45.486;9.226;2023-02-16T18:15:57;12.40;79.70
62154;DHT22;48140;45.486;9.226;2023-02-16T18:18:25;12.30;80.40
62154;DHT22;48140;45.486;9.226;2023-02-16T18:20:52;12.20;80.80
62154;DHT22;48140;45.486;9.226;2023-02-16T18:23:18;12.20;81.10
62154;DHT22;48140;45.486;9.226;2023-02-16T18:25:44;12.20;81.30
62154;DHT22;48140;45.486;9.226;2023-02-16T18:28:17;12.10;81.60
62154;DHT22;48140;45.486;9.226;2023-02-16T18:30:44;12.10;81.70
62154;DHT22;48140;45.486;9.226;2023-02-16T18:33:10;12.00;82.40
62154;DHT22;48140;45.486;9.226;2023-02-16T18:35:36;11.90;82.70
62154;DHT22;48140;45.486;9.226;2023-02-16T18:38:02;11.90;83.30
62154;DHT22;48140;45.486;9.226;2023-02-16T18:40:28;11.80;83.40
62154;DHT22;48140;45.486;9.226;2023-02-16T18:42:54;11.80;83.60
62154;DHT22;48140;45.486;9.226;2023-02-16T18:45:22;11.80;84.10
62154;DHT22;48140;45.486;9.226;2023-02-16T18:47:47;11.70;84.30
62154;DHT22;48140;45.486;9.226;2023-02-16T18:50:14;11.70;84.50
62154;DHT22;48140;45.486;9.226;2023-02-16T18:52:40;11.50;85.00
62154;DHT22;48140;45.486;9.226;2023-02-16T18:55:13;11.60;85.20
62154;DHT22;48140;45.486;9.226;2023-02-16T18:57:40;11.60;85.40
62154;DHT22;48140;45.486;9.226;2023-02-16T19:00:07;11.60;85.60
62154;DHT22;48140;45.486;9.226;2023-02-16T19:02:33;11.50;85.80
62154;DHT22;48140;45.486;9.226;2023-02-16T19:04:59;11.50;86.00
62154;DHT22;48140;45.486;9.226;2023-02-16T19:07:25;11.50;86.40
62154;DHT22;48140;45.486;9.226;2023-02-16T19:09:51;11.50;86.50
62154;DHT22;48140;45.486;9.226;2023-02-16T19:12:17;11.40;86.90
62154;DHT22;48140;45.486;9.226;2023-02-16T19:14:48;11.40;87.40
62154;DHT22;48140;45.486;9.226;2023-02-16T19:17:22;11.30;87.50
62154;DHT22;48140;45.486;9.226;2023-02-16T19:19:53;11.30;87.70
62154;DHT22;48140;45.486;9.226;2023-02-16T19:22:19;11.30;89.90
62154;DHT22;48140;45.486;9.226;2023-02-16T19:24:51;11.20;88.20
62154;DHT22;48140;45.486;9.226;2023-02-16T19:27:23;11.20;88.50
62154;DHT22;48140;45.486;9.226;2023-02-16T19:29:57;11.20;88.70
62154;DHT22;48140;45.486;9.226;2023-02-16T19:32:24;11.20;88.80
62154;DHT22;48140;45.486;9.226;2023-02-16T19:34:49;11.10;89.20
62154;DHT22;48140;45.486;9.226;2023-02-16T19:37:15;11.10;89.40
62154;DHT22;48140;45.486;9.226;2023-02-16T19:39:41;11.10;89.40
62154;DHT22;48140;45.486;9.226;2023-02-16T19:42:07;11.10;89.60
62154;DHT22;48140;45.486;9.226;2023-02-16T19:44:33;11.00;90.00
62154;DHT22;48140;45.486;9.226;2023-02-16T19:46:59;11.00;90.10
62154;DHT22;48140;45.486;9.226;2023-02-16T19:49:25;11.00;90.10
62154;DHT22;48140;45.486;9.226;2023-02-16T19:51:51;10.90;90.00
62154;DHT22;48140;45.486;9.226;2023-02-16T19:54:18;11.00;90.20
62154;DHT22;48140;45.486;9.226;2023-02-16T19:56:44;10.90;90.20
62154;DHT22;48140;45.486;9.226;2023-02-16T19:59:09;10.90;90.10
62154;DHT22;48140;45.486;9.226;2023-02-16T20:01:35;10.90;90.10
62154;DHT22;48140;45.486;9.226;2023-02-16T20:04:01;10.90;90.20
62154;DHT22;48140;45.486;9.226;2023-02-16T20:06:30;10.90;90.20
62154;DHT22;48140;45.486;9.226;2023-02-16T20:08:57;10.80;90.20
62154;DHT22;48140;45.486;9.226;2023-02-16T20:11:25;10.80;90.20
62154;DHT22;48140;45.486;9.226;2023-02-16T20:13:52;10.80;90.20
62154;DHT22;48140;45.486;9.226;2023-02-16T20:16:18;10.80;90.00
62154;DHT22;48140;45.486;9.226;2023-02-16T20:18:45;10.80;90.30
62154;DHT22;48140;45.486;9.226;2023-02-16T20:21:12;10.70;90.50
62154;DHT22;48140;45.486;9.226;2023-02-16T20:23:39;10.70;90.50
62154;DHT22;48140;45.486;9.226;2023-02-16T20:26:08;10.70;91.10
62154;DHT22;48140;45.486;9.226;2023-02-16T20:28:35;10.70;90.60
62154;DHT22;48140;45.486;9.226;2023-02-16T20:31:01;10.70;90.40
62154;DHT22;48140;45.486;9.226;2023-02-16T20:33:27;10.70;90.60
62154;DHT22;48140;45.486;9.226;2023-02-16T20:35:52;10.70;90.50
62154;DHT22;48140;45.486;9.226;2023-02-16T20:38:18;10.80;90.50
62154;DHT22;48140;45.486;9.226;2023-02-16T20:40:44;10.80;90.40
62154;DHT22;48140;45.486;9.226;2023-02-16T20:43:10;10.80;90.50
62154;DHT22;48140;45.486;9.226;2023-02-16T20:45:36;10.80;90.40
62154;DHT22;48140;45.486;9.226;2023-02-16T20:48:08;10.80;90.90
62154;DHT22;48140;45.486;9.226;2023-02-16T20:50:35;10.80;90.40
62154;DHT22;48140;45.486;9.226;2023-02-16T20:53:01;10.80;90.60
62154;DHT22;48140;45.486;9.226;2023-02-16T20:55:29;10.90;90.50
62154;DHT22;48140;45.486;9.226;2023-02-16T20:57:56;10.90;90.70
62154;DHT22;48140;45.486;9.226;2023-02-16T21:00:22;10.80;90.50
62154;DHT22;48140;45.486;9.226;2023-02-16T21:02:49;10.80;90.60
62154;DHT22;48140;45.486;9.226;2023-02-16T21:05:15;10.80;90.60
62154;DHT22;48140;45.486;9.226;2023-02-16T21:07:41;10.80;90.80
62154;DHT22;48140;45.486;9.226;2023-02-16T21:10:09;10.80;90.80
62154;DHT22;48140;45.486;9.226;2023-02-16T21:12:35;10.80;91.00
62154;DHT22;48140;45.486;9.226;2023-02-16T21:15:01;10.70;91.10
62154;DHT22;48140;45.486;9.226;2023-02-16T21:17:27;10.70;91.20
62154;DHT22;48140;45.486;9.226;2023-02-16T21:19:53;10.70;91.30
62154;DHT22;48140;45.486;9.226;2023-02-16T21:22:19;10.70;91.40
62154;DHT22;48140;45.486;9.226;2023-02-16T21:24:45;10.70;91.30
62154;DHT22;48140;45.486;9.226;2023-02-16T21:27:11;10.70;91.50
62154;DHT22;48140;45.486;9.226;2023-02-16T21:29:37;10.70;91.60
62154;DHT22;48140;45.486;9.226;2023-02-16T21:32:06;10.70;91.60
62154;DHT22;48140;45.486;9.226;2023-02-16T21:34:33;10.70;91.60
62154;DHT22;48140;45.486;9.226;2023-02-16T21:36:59;10.80;91.70
62154;DHT22;48140;45.486;9.226;2023-02-16T21:39:25;10.60;91.90
62154;DHT22;48140;45.486;9.226;2023-02-16T21:42:09;10.70;91.90
62154;DHT22;48140;45.486;9.226;2023-02-16T21:44:35;10.60;92.00
62154;DHT22;48140;45.486;9.226;2023-02-16T21:47:13;10.60;92.10
62154;DHT22;48140;45.486;9.226;2023-02-16T21:49:58;10.60;92.10
62154;DHT22;48140;45.486;9.226;2023-02-16T21:52:24;10.60;92.20
62154;DHT22;48140;45.486;9.226;2023-02-16T21:54:50;10.60;92.40
62154;DHT22;48140;45.486;9.226;2023-02-16T21:57:35;10.60;92.40
62154;DHT22;48140;45.486;9.226;2023-02-16T22:00:02;10.50;92.50
62154;DHT22;48140;45.486;9.226;2023-02-16T22:02:31;10.50;93.10
62154;DHT22;48140;45.486;9.226;2023-02-16T22:04:56;10.50;92.70
62154;DHT22;48140;45.486;9.226;2023-02-16T22:07:22;10.50;92.90
62154;DHT22;48140;45.486;9.226;2023-02-16T22:09:48;10.50;92.90
62154;DHT22;48140;45.486;9.226;2023-02-16T22:12:14;10.40;92.90
62154;DHT22;48140;45.486;9.226;2023-02-16T22:14:46;10.40;93.00
62154;DHT22;48140;45.486;9.226;2023-02-16T22:20:04;10.40;93.10
62154;DHT22;48140;45.486;9.226;2023-02-16T22:22:30;10.40;93.40
62154;DHT22;48140;45.486;9.226;2023-02-16T22:25:31;10.40;93.40
62154;DHT22;48140;45.486;9.226;2023-02-16T22:28:00;10.40;93.50
62154;DHT22;48140;45.486;9.226;2023-02-16T22:30:29;10.40;93.30
62154;DHT22;48140;45.486;9.226;2023-02-16T22:32:58;10.40;93.40
62154;DHT22;48140;45.486;9.226;2023-02-16T22:35:33;10.40;93.50
62154;DHT22;48140;45.486;9.226;2023-02-16T22:41:19;10.30;93.50
62154;DHT22;48140;45.486;9.226;2023-02-16T22:44:10;10.30;93.60
62154;DHT22;48140;45.486;9.226;2023-02-16T22:46:40;10.20;93.80
62154;DHT22;48140;45.486;9.226;2023-02-16T22:49:07;10.20;94.00
62154;DHT22;48140;45.486;9.226;2023-02-16T22:51:47;10.20;93.90
62154;DHT22;48140;45.486;9.226;2023-02-16T22:54:37;10.20;94.00
62154;DHT22;48140;45.486;9.226;2023-02-16T22:57:20;10.10;94.20
62154;DHT22;48140;45.486;9.226;2023-02-16T22:59:49;10.10;94.30
62154;DHT22;48140;45.486;9.226;2023-02-16T23:02:20;10.20;94.30
62154;DHT22;48140;45.486;9.226;2023-02-16T23:04:58;10.10;94.40
62154;DHT22;48140;45.486;9.226;2023-02-16T23:07:33;10.00;94.80
62154;DHT22;48140;45.486;9.226;2023-02-16T23:10:01;10.00;94.80
62154;DHT22;48140;45.486;9.226;2023-02-16T23:12:26;10.10;94.80
62154;DHT22;48140;45.486;9.226;2023-02-16T23:14:55;10.10;95.00
62154;DHT22;48140;45.486;9.226;2023-02-16T23:17:26;10.00;95.10
62154;DHT22;48140;45.486;9.226;2023-02-16T23:19:52;10.00;95.30
62154;DHT22;48140;45.486;9.226;2023-02-16T23:22:28;9.90;95.30
62154;DHT22;48140;45.486;9.226;2023-02-16T23:24:57;9.90;95.50
62154;DHT22;48140;45.486;9.226;2023-02-16T23:27:42;10.00;95.60
62154;DHT22;48140;45.486;9.226;2023-02-16T23:30:14;9.90;95.60
62154;DHT22;48140;45.486;9.226;2023-02-16T23:32:40;9.90;95.60
62154;DHT22;48140;45.486;9.226;2023-02-16T23:35:30;9.90;95.90
62154;DHT22;48140;45.486;9.226;2023-02-16T23:38:06;9.90;96.00
62154;DHT22;48140;45.486;9.226;2023-02-16T23:40:44;9.90;96.10
62154;DHT22;48140;45.486;9.226;2023-02-16T23:43:12;9.80;96.10
62154;DHT22;48140;45.486;9.226;2023-02-16T23:45:41;9.80;96.20
62154;DHT22;48140;45.486;9.226;2023-02-16T23:48:16;9.90;96.10
62154;DHT22;48140;45.486;9.226;2023-02-16T23:50:42;9.80;96.30
62154;DHT22;48140;45.486;9.226;2023-02-16T23:53:17;9.80;96.40